Time;durP1;ratioP1;P1;durP2;ratioP2;P2;SDS_P1;SDS_P2;PMS_P1;PMS_P2;Temp;Humidity;BMP_temperature;BMP_pressure;BME280_temperature;BME280_humidity;BME280_pressure;Samples;Min_cycle;Max_cycle;Signal;HPM_P1;HPM_P2
2022/11/23 00:01:31;;;;;;;5.68;2.30;;;;;;;18.07;47.22;99442.41;5027272;28;20050;-57
2022/11/23 00:04:06;;;;;;;3.95;2.47;;;;;;;18.07;46.95;99442.41;5026805;28;20029;-57
2022/11/23 00:06:32;;;;;;;4.45;2.60;;;;;;;18.07;47.16;99446.94;5027204;28;20109;-57
2022/11/23 00:08:57;;;;;;;3.25;2.20;;;;;;;18.04;46.88;99445.47;5026774;28;20037;-57
2022/11/23 00:11:24;;;;;;;5.18;2.55;;;;;;;18.06;47.16;99445.31;5026874;28;20030;-57
2022/11/23 00:13:49;;;;;;;3.58;1.90;;;;;;;18.06;47.02;99450.69;5026424;28;20089;-57
2022/11/23 00:16:20;;;;;;;3.90;2.13;;;;;;;18.06;47.12;99448.00;5026726;28;20034;-57
2022/11/23 00:18:46;;;;;;;3.70;2.45;;;;;;;18.05;47.10;99446.31;5026540;28;20028;-56
2022/11/23 00:21:16;;;;;;;2.97;1.90;;;;;;;18.04;46.92;99441.97;5026739;28;20049;-57
2022/11/23 00:23:42;;;;;;;4.28;2.20;;;;;;;18.02;47.19;99447.56;5026050;28;20101;-57
2022/11/23 00:26:08;;;;;;;4.00;2.70;;;;;;;18.04;47.06;99450.03;5026653;28;20653;-56
2022/11/23 00:28:37;;;;;;;3.65;2.00;;;;;;;18.02;47.08;99452.94;5026180;28;20084;-57
2022/11/23 00:31:02;;;;;;;;;;;;;;;18.04;47.08;99453.56;5027267;28;20026;-57
2022/11/23 00:33:27;;;;;;;3.15;2.10;;;;;;;18.03;47.13;99451.91;5026248;28;19916;-57
2022/11/23 00:36:06;;;;;;;3.15;2.15;;;;;;;18.02;47.08;99460.16;5026614;28;20022;-57
2022/11/23 00:38:32;;;;;;;5.15;2.78;;;;;;;18.01;47.00;99467.41;5026012;28;20022;-55
2022/11/23 00:41:03;;;;;;;4.20;2.10;;;;;;;17.99;46.91;99467.59;5026296;28;20037;-57
2022/11/23 00:43:29;;;;;;;3.50;2.10;;;;;;;17.99;47.01;99464.06;5025900;28;20027;-57
2022/11/23 00:46:05;;;;;;;4.10;2.28;;;;;;;17.99;47.18;99461.38;5026110;28;20077;-57
2022/11/23 00:48:31;;;;;;;4.00;2.20;;;;;;;17.98;46.93;99460.56;5025194;28;20080;-57
2022/11/23 00:50:56;;;;;;;5.20;2.70;;;;;;;17.96;47.15;99461.78;5026291;28;20030;-57
2022/11/23 00:53:22;;;;;;;2.72;1.80;;;;;;;17.95;46.96;99462.81;5008262;28;20046;-56
2022/11/23 00:55:51;;;;;;;5.38;2.38;;;;;;;17.96;46.78;99462.59;5026377;28;20044;-55
2022/11/23 00:58:16;;;;;;;3.92;1.95;;;;;;;17.97;47.02;99468.84;5025641;28;20022;-57
2022/11/23 01:00:42;;;;;;;3.55;2.20;;;;;;;17.94;46.97;99461.97;5025984;28;20050;-56
2022/11/23 01:03:07;;;;;;;4.57;2.58;;;;;;;17.97;47.03;99468.84;5024748;28;20057;-58
2022/11/23 01:05:36;;;;;;;5.22;2.10;;;;;;;17.97;46.97;99474.22;5026005;28;20026;-54
2022/11/23 01:08:02;;;;;;;4.20;2.00;;;;;;;17.96;47.15;99473.34;5025484;28;20037;-57
2022/11/23 01:10:28;;;;;;;4.40;2.03;;;;;;;17.96;47.31;99470.66;5025926;28;20400;-57
2022/11/23 01:12:54;;;;;;;2.95;1.73;;;;;;;17.92;46.86;99468.56;5025257;28;20026;-56
2022/11/23 01:15:19;;;;;;;2.45;1.88;;;;;;;17.95;47.08;99479.78;5025668;28;20072;-58
2022/11/23 01:17:44;;;;;;;4.07;2.33;;;;;;;17.96;47.05;99477.91;5025193;28;20029;-56
2022/11/23 01:20:10;;;;;;;3.25;2.13;;;;;;;17.95;47.02;99485.16;5025699;28;20049;-57
2022/11/23 01:22:35;;;;;;;2.95;1.83;;;;;;;17.95;47.22;99490.53;5024985;28;20026;-56
2022/11/23 01:25:00;;;;;;;2.28;1.80;;;;;;;17.96;47.08;99483.28;5025736;28;20032;-55
2022/11/23 01:27:25;;;;;;;2.67;1.77;;;;;;;17.94;47.19;99488.88;5025043;28;20026;-55
2022/11/23 01:29:51;;;;;;;2.65;1.67;;;;;;;17.94;46.77;99488.88;5007593;28;20033;-56
2022/11/23 01:32:16;;;;;;;3.17;1.70;;;;;;;17.95;46.89;99489.69;5025196;28;20085;-56
2022/11/23 01:34:41;;;;;;;3.22;1.70;;;;;;;17.94;47.55;99496.09;5025398;28;20652;-58
2022/11/23 01:37:06;;;;;;;3.92;2.05;;;;;;;17.93;47.37;99494.47;5025033;28;20454;-56
2022/11/23 01:39:32;;;;;;;3.30;1.80;;;;;;;17.93;47.08;99489.91;5025096;28;20125;-56
2022/11/23 01:41:57;;;;;;;2.70;1.80;;;;;;;17.87;47.07;99489.84;5024981;28;20030;-57
2022/11/23 01:44:30;;;;;;;4.72;2.47;;;;;;;17.93;47.12;99500.66;5024982;28;20034;-58
2022/11/23 01:47:00;;;;;;;2.70;1.95;;;;;;;17.91;47.19;99504.56;5024741;28;20022;-55
2022/11/23 01:49:30;;;;;;;3.78;2.10;;;;;;;17.90;46.88;99506.41;5024987;28;20495;-57
2022/11/23 01:51:57;;;;;;;2.78;1.50;;;;;;;17.88;47.18;99513.88;5024607;28;20025;-57
2022/11/23 01:54:47;;;;;;;2.42;1.63;;;;;;;17.90;47.02;99511.81;5007486;28;20022;-56
2022/11/23 01:57:18;;;;;;;3.13;1.80;;;;;;;17.91;47.03;99512.63;5017504;28;20040;-58
2022/11/23 01:59:44;;;;;;;3.13;2.30;;;;;;;17.84;46.98;99509.06;5006751;28;20032;-57
2022/11/23 02:02:09;;;;;;;2.25;1.95;;;;;;;17.90;47.41;99519.03;5024735;28;20614;-57
2022/11/23 02:04:38;;;;;;;4.63;2.00;;;;;;;17.90;47.10;99516.34;5007565;28;20026;-58
2022/11/23 02:07:03;;;;;;;3.40;1.80;;;;;;;17.75;46.99;99500.31;5007016;28;20033;-56
2022/11/23 02:09:32;;;;;;;3.72;1.77;;;;;;;17.90;47.04;99529.78;5024720;28;20480;-56
2022/11/23 02:11:58;;;;;;;2.33;1.70;;;;;;;17.80;47.01;99514.00;5024532;28;20018;-56
2022/11/23 02:14:23;;;;;;;2.35;1.83;;;;;;;17.88;47.26;99523.75;5024200;28;20037;-58
2022/11/23 02:16:49;;;;;;;2.95;1.50;;;;;;;17.88;47.28;99527.31;5024058;28;20040;-58
2022/11/23 02:19:43;;;;;;;4.22;1.80;;;;;;;17.87;47.05;99525.63;5006946;28;20025;-56
2022/11/23 02:22:15;;;;;;;4.22;2.00;;;;;;;17.88;46.94;99530.00;5023910;28;20029;-58
2022/11/23 02:24:45;;;;;;;4.57;2.10;;;;;;;17.84;46.96;99528.72;5006825;28;20077;-57
2022/11/23 02:27:11;;;;;;;2.80;1.55;;;;;;;17.81;47.23;99534.50;5006762;28;20032;-57
2022/11/23 02:29:37;;;;;;;3.92;1.83;;;;;;;17.86;47.21;99539.28;5006488;28;20104;-57
2022/11/23 02:32:02;;;;;;;3.67;1.80;;;;;;;17.86;46.88;99547.34;5006342;28;20030;-58
2022/11/23 02:34:27;;;;;;;2.83;1.60;;;;;;;17.86;47.03;99545.47;5024267;28;20034;-58
2022/11/23 02:36:55;;;;;;;2.47;1.73;;;;;;;17.86;46.97;99544.66;5024034;28;20030;-57
2022/11/23 02:39:31;;;;;;;2.30;1.70;;;;;;;17.86;47.07;99541.97;5024034;28;20061;-54
2022/11/23 02:41:57;;;;;;;2.55;1.65;;;;;;;17.86;46.97;99550.03;5006213;28;20093;-57
2022/11/23 02:44:41;;;;;;;2.40;1.70;;;;;;;17.85;47.11;99543.00;5023588;28;20033;-57
2022/11/23 02:47:07;;;;;;;4.07;2.05;;;;;;;17.86;47.00;99552.72;5023393;28;20029;-57
2022/11/23 02:49:32;;;;;;;1.98;1.58;;;;;;;17.76;47.14;99536.94;5006037;28;20041;-56
2022/11/23 02:51:57;;;;;;;2.50;1.90;;;;;;;17.84;47.08;99547.56;5023628;28;20034;-57
2022/11/23 02:54:22;;;;;;;2.88;1.88;;;;;;;17.84;47.03;99544.00;5024018;28;20107;-58
2022/11/23 02:56:48;;;;;;;2.47;1.60;;;;;;;17.84;47.24;99547.56;5024050;28;20030;-59
2022/11/23 02:59:13;;;;;;;4.00;1.83;;;;;;;17.83;47.01;99548.56;5023312;28;20026;-58
2022/11/23 03:01:41;;;;;;;3.75;1.70;;;;;;;17.84;46.96;99549.38;5023981;28;20060;-59
2022/11/23 03:04:07;;;;;;;3.23;1.90;;;;;;;17.83;47.08;99556.63;5023596;28;20037;-58
2022/11/23 03:06:32;;;;;;;2.80;1.70;;;;;;;17.83;47.26;99558.47;5023372;28;20049;-58
2022/11/23 03:08:57;;;;;;;2.45;1.35;;;;;;;17.79;46.93;99552.66;5023608;28;20081;-57
2022/11/23 03:11:22;;;;;;;2.08;1.70;;;;;;;17.82;46.99;99557.66;5023668;28;20030;-58
2022/11/23 03:13:48;;;;;;;2.17;1.73;;;;;;;17.82;46.98;99559.50;5023068;28;20077;-58
2022/11/23 03:16:13;;;;;;;3.42;1.65;;;;;;;17.82;47.09;99563.03;5023573;28;20030;-58
2022/11/23 03:18:38;;;;;;;3.05;1.73;;;;;;;17.82;46.97;99562.19;5023336;28;20033;-58
2022/11/23 03:21:04;;;;;;;3.03;2.03;;;;;;;17.82;47.30;99571.09;5023735;28;20105;-56
2022/11/23 03:23:30;;;;;;;4.57;2.28;;;;;;;17.81;46.94;99568.59;5023122;28;20069;-57
2022/11/23 03:25:58;;;;;;;1.92;1.50;;;;;;;17.80;47.07;99567.78;5024616;28;20076;-59
2022/11/23 03:28:24;;;;;;;2.55;1.83;;;;;;;17.81;47.05;99569.44;5027108;28;20084;-58
2022/11/23 03:30:49;;;;;;;3.17;1.65;;;;;;;17.80;47.43;99573.16;5027751;28;20030;-57
2022/11/23 03:33:15;;;;;;;2.50;1.98;;;;;;;17.81;47.20;99568.59;5027426;28;20112;-57
2022/11/23 03:35:40;;;;;;;1.90;1.30;;;;;;;17.80;47.23;99566.91;5027713;28;20126;-54
2022/11/23 03:38:05;;;;;;;2.85;1.50;;;;;;;17.80;47.17;99573.16;5026655;28;20097;-56
2022/11/23 03:40:31;;;;;;;2.90;1.65;;;;;;;17.80;46.92;99572.31;5027483;28;20032;-56
2022/11/23 03:42:56;;;;;;;3.08;1.52;;;;;;;17.64;47.16;99550.03;5026512;28;20030;-57
2022/11/23 03:45:21;;;;;;;2.53;1.63;;;;;;;17.80;47.14;99575.84;5009472;28;20022;-57
2022/11/23 03:47:47;;;;;;;2.70;1.70;;;;;;;17.77;46.93;99576.22;5027012;28;20040;-58
2022/11/23 03:50:12;;;;;;;2.00;1.45;;;;;;;17.79;47.28;99586.78;5027387;28;20022;-57
2022/11/23 03:52:37;;;;;;;5.03;1.70;;;;;;;17.79;46.95;99586.78;5026880;28;20052;-58
2022/11/23 03:55:03;;;;;;;3.70;2.33;;;;;;;17.78;47.14;99585.13;5027394;28;20474;-59
2022/11/23 03:57:28;;;;;;;3.08;1.77;;;;;;;17.78;47.14;99585.94;5027171;28;20045;-56
2022/11/23 03:59:53;;;;;;;2.80;1.70;;;;;;;17.78;46.96;99582.44;5026637;28;20030;-55
2022/11/23 04:02:18;;;;;;;2.85;1.40;;;;;;;17.78;46.91;99590.50;5026813;28;20124;-58
2022/11/23 04:04:44;;;;;;;2.63;1.67;;;;;;;17.78;47.17;99585.13;5027016;28;20086;-57
2022/11/23 04:07:09;;;;;;;3.83;1.75;;;;;;;17.77;47.32;99576.22;5026324;28;20573;-58
2022/11/23 04:09:34;;;;;;;2.60;1.48;;;;;;;17.77;47.19;99583.47;5026597;28;20108;-57
2022/11/23 04:11:59;;;;;;;2.25;1.50;;;;;;;17.77;47.02;99584.28;5026668;28;20026;-58
2022/11/23 04:14:25;;;;;;;3.00;1.70;;;;;;;17.76;47.35;99585.31;5026347;28;20034;-57
2022/11/23 04:16:50;;;;;;;2.38;1.60;;;;;;;17.67;47.00;99573.84;5026605;28;20089;-58
2022/11/23 04:19:15;;;;;;;1.85;1.30;;;;;;;17.76;47.26;99584.50;5026611;28;20688;-57
2022/11/23 04:21:40;;;;;;;2.53;1.58;;;;;;;17.74;47.04;99584.66;5026634;28;20421;-57
2022/11/23 04:24:06;;;;;;;2.13;1.40;;;;;;;17.76;47.12;99589.88;5026329;28;20072;-58
2022/11/23 04:26:31;;;;;;;2.55;1.55;;;;;;;17.76;46.82;99592.56;5026781;28;20026;-58
2022/11/23 04:28:56;;;;;;;4.13;2.00;;;;;;;17.76;47.45;99592.56;5008531;28;20022;-54
2022/11/23 04:31:21;;;;;;;2.45;1.38;;;;;;;17.75;47.21;99591.69;5026848;28;20105;-55
2022/11/23 04:33:47;;;;;;;2.80;1.50;;;;;;;17.75;47.09;99586.31;5026306;28;20033;-56
2022/11/23 04:36:12;;;;;;;2.35;1.70;;;;;;;17.69;46.92;99584.38;5026300;28;20025;-56
2022/11/23 04:38:37;;;;;;;2.72;1.70;;;;;;;17.75;47.17;99591.69;5024542;28;20109;-56
2022/11/23 04:41:02;;;;;;;3.22;1.45;;;;;;;17.74;47.21;99596.25;5026463;28;20030;-54
2022/11/23 04:43:28;;;;;;;3.28;1.70;;;;;;;17.73;47.03;99582.97;5025488;28;20505;-58
2022/11/23 04:45:53;;;;;;;1.92;1.13;;;;;;;17.73;46.89;99591.03;5026095;28;20049;-57
2022/11/23 04:48:18;;;;;;;1.85;1.48;;;;;;;17.72;47.10;99590.22;5026178;28;20026;-57
2022/11/23 04:50:43;;;;;;;2.10;1.60;;;;;;;17.74;47.04;99581.97;5026444;28;20643;-56
2022/11/23 04:53:09;;;;;;;3.00;1.58;;;;;;;17.72;46.96;99589.38;5025732;28;20044;-57
2022/11/23 04:55:34;;;;;;;2.25;1.33;;;;;;;17.69;47.20;99574.47;5026267;28;20134;-54
2022/11/23 04:57:59;;;;;;;2.92;1.40;;;;;;;17.71;47.00;99577.81;5025360;28;20037;-58
2022/11/23 05:00:26;;;;;;;2.33;1.58;;;;;;;17.72;47.08;99578.63;5026170;28;20030;-58
2022/11/23 05:02:51;;;;;;;1.85;1.40;;;;;;;17.71;47.06;99579.63;5025853;28;20026;-56
2022/11/23 05:05:16;;;;;;;2.58;1.75;;;;;;;17.71;47.17;99577.81;5026050;28;20034;-58
2022/11/23 05:07:42;;;;;;;2.38;1.40;;;;;;;17.72;47.28;99575.94;5024922;28;20037;-58
2022/11/23 05:10:08;;;;;;;2.30;1.48;;;;;;;17.71;47.21;99579.63;5025877;28;20096;-58
2022/11/23 05:12:33;;;;;;;1.50;1.25;;;;;;;17.72;47.23;99578.63;5025635;28;20033;-56
2022/11/23 05:14:58;;;;;;;2.53;1.45;;;;;;;17.71;47.51;99577.81;5025203;28;20053;-57
2022/11/23 05:17:24;;;;;;;2.13;1.50;;;;;;;17.67;47.18;99572.97;5025428;28;20631;-55
2022/11/23 05:19:49;;;;;;;1.38;1.25;;;;;;;17.68;47.20;99571.97;5025775;28;20028;-55
2022/11/23 05:22:14;;;;;;;1.75;1.25;;;;;;;17.69;46.93;99582.53;5025311;28;20036;-57
2022/11/23 05:24:39;;;;;;;4.00;1.98;;;;;;;17.65;47.21;99569.66;5025645;28;20069;-55
2022/11/23 05:27:04;;;;;;;2.15;1.30;;;;;;;17.71;47.10;99582.31;5025644;28;20029;-55
2022/11/23 05:29:30;;;;;;;2.63;1.50;;;;;;;17.70;46.87;99580.66;5025021;28;20093;-57
2022/11/23 05:31:55;;;;;;;2.03;1.40;;;;;;;17.69;46.93;99579.84;5025555;28;20696;-56
2022/11/23 05:34:20;;;;;;;1.92;1.40;;;;;;;17.69;47.03;99581.69;5025388;28;20029;-58
2022/11/23 05:36:45;;;;;;;3.22;1.50;;;;;;;17.70;47.29;99591.41;5023850;28;20044;-58
2022/11/23 05:39:11;;;;;;;1.92;1.38;;;;;;;17.60;47.02;99561.34;5025208;28;20649;-58
2022/11/23 05:41:36;;;;;;;1.73;1.35;;;;;;;17.67;47.18;99576.53;5024916;28;20087;-57
2022/11/23 05:44:01;;;;;;;2.47;1.30;;;;;;;17.69;47.07;99584.38;5024658;28;20030;-56
2022/11/23 05:46:26;;;;;;;1.90;1.48;;;;;;;17.66;47.14;99574.84;5024856;28;20050;-57
2022/11/23 05:48:52;;;;;;;2.75;1.30;;;;;;;17.69;47.37;99587.91;5024550;28;20026;-59
2022/11/23 05:51:17;;;;;;;1.77;1.23;;;;;;;17.69;47.01;99587.06;5007838;28;20033;-58
2022/11/23 05:53:42;;;;;;;1.92;1.40;;;;;;;17.69;47.20;99579.00;5024554;28;20498;-54
2022/11/23 05:56:07;;;;;;;2.92;1.63;;;;;;;17.68;47.15;99580.88;5025025;28;20034;-57
2022/11/23 05:58:33;;;;;;;2.42;1.40;;;;;;;17.63;47.22;99574.41;5024365;28;20026;-57
2022/11/23 06:00:59;;;;;;;2.88;1.55;;;;;;;17.68;47.06;99574.66;5024681;28;20030;-57
2022/11/23 06:03:24;;;;;;;1.77;1.30;;;;;;;17.69;47.27;99587.06;5007022;28;20025;-58
2022/11/23 06:05:49;;;;;;;1.60;1.35;;;;;;;17.63;47.08;99579.78;5024282;28;20060;-57
2022/11/23 06:08:15;;;;;;;2.28;1.30;;;;;;;17.70;47.00;99583.34;5019106;28;20029;-58
2022/11/23 06:10:40;;;;;;;1.98;1.20;;;;;;;17.66;47.22;99579.38;5024150;28;20033;-56
2022/11/23 06:13:05;;;;;;;1.80;1.00;;;;;;;17.69;47.42;99579.84;5023152;28;20044;-57
2022/11/23 06:15:30;;;;;;;3.67;1.55;;;;;;;17.70;47.28;99594.94;5024167;28;20061;-58
2022/11/23 06:18:00;;;;;;;2.42;1.40;;;;;;;17.57;47.66;99567.09;5024109;28;20088;-57
2022/11/23 06:20:25;;;;;;;2.60;1.65;;;;;;;17.72;47.57;99592.06;5024966;28;20022;-57
2022/11/23 06:22:54;;;;;;;1.85;1.48;;;;;;;17.72;47.79;99600.13;5023001;28;20042;-57
2022/11/23 06:25:19;;;;;;;1.58;1.48;;;;;;;17.74;48.10;99598.09;5006688;28;20044;-56
2022/11/23 06:27:55;;;;;;;2.35;1.33;;;;;;;17.74;48.04;99593.56;5023658;28;20057;-58
2022/11/23 06:30:21;;;;;;;1.92;1.13;;;;;;;17.51;48.20;99559.81;5024240;28;20153;-57
2022/11/23 06:32:46;;;;;;;2.83;1.30;;;;;;;17.77;48.25;99602.28;5023797;28;20157;-57
2022/11/23 06:35:11;;;;;;;1.85;1.10;;;;;;;17.77;47.98;99600.41;5024682;28;20022;-58
2022/11/23 06:37:37;;;;;;;4.03;1.67;;;;;;;17.78;48.30;99607.44;5023048;28;20030;-54
2022/11/23 06:40:02;;;;;;;2.40;1.45;;;;;;;17.69;48.23;99585.22;5023621;28;20627;-56
2022/11/23 06:42:27;;;;;;;2.25;1.27;;;;;;;17.80;48.30;99601.88;5004330;28;20037;-57
2022/11/23 06:44:53;;;;;;;2.13;1.42;;;;;;;17.80;48.26;99600.03;5023318;28;20030;-57
2022/11/23 06:47:18;;;;;;;3.38;1.50;;;;;;;17.72;48.54;99592.06;4997515;28;20017;-59
2022/11/23 06:49:43;;;;;;;2.00;1.17;;;;;;;17.76;48.40;99598.75;5004820;28;20068;-60
2022/11/23 06:52:09;;;;;;;4.00;1.63;;;;;;;17.83;48.30;99610.38;5007244;28;20525;-55
2022/11/23 06:54:34;;;;;;;2.90;1.67;;;;;;;17.84;48.30;99620.16;5020290;28;20022;-54
2022/11/23 06:56:59;;;;;;;3.65;1.20;;;;;;;17.85;48.39;99612.91;5022773;28;20034;-53
2022/11/23 06:59:24;;;;;;;2.58;1.70;;;;;;;17.85;48.20;99612.91;5021557;28;20037;-56
2022/11/23 07:01:50;;;;;;;3.38;1.48;;;;;;;17.86;48.38;99617.25;5021984;28;20037;-55
2022/11/23 07:04:15;;;;;;;2.10;1.38;;;;;;;17.86;48.33;99619.94;5022771;28;20025;-56
2022/11/23 07:06:40;;;;;;;1.70;1.20;;;;;;;17.87;48.40;99626.97;5023456;28;20720;-55
2022/11/23 07:09:06;;;;;;;1.67;1.27;;;;;;;17.87;48.64;99619.72;5023240;28;20483;-55
2022/11/23 07:11:31;;;;;;;1.88;1.65;;;;;;;17.86;48.29;99619.94;5023660;28;20133;-55
2022/11/23 07:13:56;;;;;;;4.63;1.65;;;;;;;17.86;48.22;99625.31;5022677;28;20125;-56
2022/11/23 07:16:21;;;;;;;2.08;1.30;;;;;;;17.89;48.33;99628.47;5021820;28;20060;-55
2022/11/23 07:18:47;;;;;;;3.08;1.52;;;;;;;17.89;48.70;99639.22;5022570;28;20033;-56
2022/11/23 07:21:12;;;;;;;2.25;1.38;;;;;;;17.90;48.62;99632.81;5023602;28;20052;-53
2022/11/23 07:23:40;;;;;;;3.35;1.45;;;;;;;17.88;48.53;99640.25;5022903;28;20065;-50
2022/11/23 07:26:06;;;;;;;2.35;1.15;;;;;;;17.86;48.95;99638.75;5023295;28;20037;-56
2022/11/23 07:28:32;;;;;;;3.55;1.30;;;;;;;17.88;48.67;99642.94;5021795;28;20028;-52
2022/11/23 07:30:57;;;;;;;2.55;1.20;;;;;;;17.89;48.99;99646.44;5023049;28;20479;-56
2022/11/23 07:33:22;;;;;;;4.57;1.38;;;;;;;17.90;48.89;99645.41;5023034;28;20410;-56
2022/11/23 07:35:48;;;;;;;7.07;1.40;;;;;;;17.91;48.88;99649.75;5023275;28;20052;-56
2022/11/23 07:38:13;;;;;;;3.65;1.95;;;;;;;17.92;48.87;99659.50;5022821;28;20029;-57
2022/11/23 07:40:38;;;;;;;3.38;1.25;;;;;;;17.93;49.13;99663.88;5022740;28;20038;-56
2022/11/23 07:43:05;;;;;;;3.83;1.85;;;;;;;17.85;48.95;99648.69;5022559;28;20055;-56
2022/11/23 07:45:30;;;;;;;5.05;1.83;;;;;;;17.95;48.72;99656.41;5005242;28;20557;-58
2022/11/23 07:48:01;;;;;;;4.22;1.50;;;;;;;17.96;48.99;99668.84;5022431;28;20033;-58
2022/11/23 07:50:27;;;;;;;2.45;1.20;;;;;;;17.96;48.71;99666.16;5022227;28;20048;-61
2022/11/23 07:52:52;;;;;;;3.55;1.30;;;;;;;17.95;49.04;99670.69;5022354;28;20030;-56
2022/11/23 07:55:17;;;;;;;2.83;1.30;;;;;;;17.97;48.95;99678.59;5023121;28;20093;-57
2022/11/23 07:57:42;;;;;;;2.35;1.73;;;;;;;17.97;48.80;99674.03;5022839;28;20038;-50
2022/11/23 08:00:08;;;;;;;2.53;1.50;;;;;;;17.88;48.42;99666.28;5022075;28;20372;-54
2022/11/23 08:02:34;;;;;;;2.58;1.30;;;;;;;17.99;48.54;99688.13;5023188;28;20041;-55
2022/11/23 08:04:59;;;;;;;5.43;1.75;;;;;;;17.38;48.33;99585.53;5022593;28;20021;-59
2022/11/23 08:07:24;;;;;;;2.38;1.23;;;;;;;18.00;48.53;99672.81;5023061;28;20029;-56
2022/11/23 08:09:49;;;;;;;2.65;1.27;;;;;;;17.98;48.20;99673.00;5023137;28;20026;-58
2022/11/23 08:12:15;;;;;;;3.60;1.25;;;;;;;18.04;48.34;99689.41;5024386;28;20029;-58
2022/11/23 08:14:40;;;;;;;1.90;1.50;;;;;;;17.97;48.35;99675.91;5026511;28;20483;-58
2022/11/23 08:17:05;;;;;;;2.53;1.15;;;;;;;18.06;48.20;99692.75;5026653;28;20222;-59
2022/11/23 08:19:30;;;;;;;4.95;1.45;;;;;;;18.06;47.96;99696.25;5026780;28;20072;-58
2022/11/23 08:21:55;;;;;;;4.13;1.50;;;;;;;18.06;48.02;99698.13;5026214;28;20048;-57
2022/11/23 08:24:21;;;;;;;2.80;1.17;;;;;;;18.06;47.89;99698.13;5026456;28;20053;-58
2022/11/23 08:26:46;;;;;;;4.05;1.27;;;;;;;18.04;47.94;99700.97;5009146;28;20081;-57
2022/11/23 08:29:11;;;;;;;2.20;1.30;;;;;;;18.04;48.08;99695.59;5026032;28;20116;-57
2022/11/23 08:31:37;;;;;;;2.70;1.50;;;;;;;18.03;47.85;99698.50;5026730;28;20022;-58
2022/11/23 08:34:02;;;;;;;2.58;1.70;;;;;;;18.02;47.63;99697.66;5026295;28;20029;-58
2022/11/23 08:36:27;;;;;;;3.53;1.52;;;;;;;18.04;47.74;99703.66;5026437;28;20053;-59
2022/11/23 08:38:53;;;;;;;3.17;1.73;;;;;;;18.04;47.68;99698.28;5026021;28;20761;-58
2022/11/23 08:41:21;;;;;;;2.53;1.20;;;;;;;18.05;47.83;99699.13;5026448;28;20037;-59
2022/11/23 08:43:47;;;;;;;2.93;1.30;;;;;;;17.94;47.77;99690.56;5025905;28;20040;-59
2022/11/23 08:46:12;;;;;;;2.85;1.60;;;;;;;17.87;47.46;99672.69;5026090;28;20430;-59
2022/11/23 08:48:37;;;;;;;2.72;1.40;;;;;;;18.09;47.78;99703.91;5025741;28;20164;-59
2022/11/23 08:51:03;;;;;;;3.90;1.65;;;;;;;18.08;47.80;99702.25;5025897;28;20037;-59
2022/11/23 08:53:28;;;;;;;2.42;1.30;;;;;;;18.11;47.64;99703.75;5025922;28;20029;-59
2022/11/23 08:55:53;;;;;;;2.63;1.33;;;;;;;18.09;47.39;99703.91;5026196;28;20026;-58
2022/11/23 08:58:18;;;;;;;2.97;1.40;;;;;;;18.09;47.39;99703.91;5025687;28;20036;-58
2022/11/23 09:00:44;;;;;;;3.40;1.48;;;;;;;18.09;47.43;99706.63;5008256;28;20037;-59
2022/11/23 09:03:09;;;;;;;2.85;1.50;;;;;;;18.00;47.28;99694.31;5025627;28;20065;-57
2022/11/23 09:05:36;;;;;;;2.47;1.67;;;;;;;18.09;47.46;99698.53;5026061;28;20088;-58
2022/11/23 09:08:01;;;;;;;2.45;1.15;;;;;;;18.08;47.66;99702.25;5025525;28;20026;-58
2022/11/23 09:10:27;;;;;;;3.97;1.50;;;;;;;18.02;47.25;99689.59;5025910;28;20024;-58
2022/11/23 09:12:52;;;;;;;4.03;1.42;;;;;;;18.09;47.61;99703.09;5008130;28;20033;-57
2022/11/23 09:15:18;;;;;;;1.83;1.35;;;;;;;18.09;47.45;99708.47;5025309;28;20033;-58
2022/11/23 09:17:43;;;;;;;2.67;1.25;;;;;;;18.08;47.21;99704.13;5025598;28;20056;-58
2022/11/23 09:20:09;;;;;;;2.35;1.20;;;;;;;18.10;47.65;99702.91;5025653;28;20037;-58
2022/11/23 09:22:35;;;;;;;2.90;1.35;;;;;;;18.09;47.39;99695.03;5025093;28;20048;-59
2022/11/23 09:25:00;;;;;;;2.83;1.33;;;;;;;18.15;47.45;99699.66;5024947;28;20061;-59
2022/11/23 09:27:25;;;;;;;2.95;1.50;;;;;;;18.17;47.27;99697.59;5025289;28;20037;-58
2022/11/23 09:29:51;;;;;;;2.60;1.85;;;;;;;18.19;47.23;99700.94;5024850;28;20037;-59
2022/11/23 09:32:16;;;;;;;3.05;1.45;;;;;;;18.20;47.16;99695.34;5025622;28;20025;-58
2022/11/23 09:34:41;;;;;;;3.38;2.05;;;;;;;18.22;47.05;99692.44;5025219;28;20519;-59
2022/11/23 09:37:06;;;;;;;3.67;1.52;;;;;;;18.22;46.89;99689.75;5025126;28;20489;-58
2022/11/23 09:39:32;;;;;;;2.88;1.30;;;;;;;18.25;47.27;99694.75;5025049;28;20033;-59
2022/11/23 09:42:22;;;;;;;2.95;1.30;;;;;;;18.24;47.06;99699.31;5025156;28;20029;-58
2022/11/23 09:45:07;;;;;;;1.85;1.10;;;;;;;18.24;46.84;99693.94;5007495;28;20089;-59
2022/11/23 09:48:03;;;;;;;3.42;1.50;;;;;;;18.23;47.04;99697.66;5024854;28;20025;-57
2022/11/23 09:50:40;;;;;;;3.65;1.30;;;;;;;18.25;46.93;99705.53;5005358;28;20105;-57
2022/11/23 09:53:11;;;;;;;3.10;1.30;;;;;;;18.26;47.08;99695.59;5024779;28;20026;-58
2022/11/23 09:55:37;;;;;;;2.28;1.40;;;;;;;18.29;47.02;99696.03;5007585;28;20029;-58
2022/11/23 09:58:04;;;;;;;2.30;1.50;;;;;;;18.32;46.75;99687.59;5007189;28;20030;-57
2022/11/23 10:00:36;;;;;;;3.28;1.45;;;;;;;18.35;46.80;99694.41;5024771;28;20026;-56
2022/11/23 10:03:02;;;;;;;3.50;1.15;;;;;;;18.36;46.74;99696.94;5007258;28;20029;-58
2022/11/23 10:05:32;;;;;;;3.50;1.42;;;;;;;18.36;46.78;99696.94;5024895;28;20048;-58
2022/11/23 10:08:18;;;;;;;2.38;1.42;;;;;;;18.34;46.74;99696.28;5006464;28;20281;-57
2022/11/23 10:10:57;;;;;;;3.25;1.45;;;;;;;18.35;46.88;99689.03;5024904;28;20021;-58
2022/11/23 10:13:32;;;;;;;2.65;1.38;;;;;;;18.33;46.88;99688.41;5023949;28;20120;-58
2022/11/23 10:16:36;;;;;;;4.68;2.13;;;;;;;18.34;46.75;99679.31;5006646;28;20034;-58
2022/11/23 10:19:12;;;;;;;3.13;1.38;;;;;;;18.33;46.61;99689.25;5024321;28;20057;-58
2022/11/23 10:21:54;;;;;;;3.25;1.67;;;;;;;18.32;46.88;99687.59;5006857;28;20078;-58
2022/11/23 10:24:23;;;;;;;2.45;1.42;;;;;;;18.31;46.67;99683.25;5006895;28;20073;-58
2022/11/23 10:26:49;;;;;;;2.30;1.40;;;;;;;18.31;46.93;99680.56;5006796;28;20025;-59
2022/11/23 10:29:14;;;;;;;1.95;1.15;;;;;;;18.30;46.94;99667.28;5024039;28;20057;-57
2022/11/23 10:31:44;;;;;;;3.72;1.60;;;;;;;18.30;46.95;99672.66;5024494;28;20029;-58
2022/11/23 10:34:12;;;;;;;2.30;1.30;;;;;;;18.25;46.94;99662.47;5006483;28;20021;-58
2022/11/23 10:36:38;;;;;;;2.38;1.25;;;;;;;18.31;46.81;99669.78;5006872;28;20549;-59
2022/11/23 10:39:16;;;;;;;2.33;1.10;;;;;;;18.29;47.03;99655.69;5023744;28;20022;-59
2022/11/23 10:41:43;;;;;;;2.40;1.67;;;;;;;18.30;46.71;99651.97;5006488;28;20022;-59
2022/11/23 10:44:31;;;;;;;2.40;1.30;;;;;;;18.05;46.99;99605.81;5006065;28;20057;-57
2022/11/23 10:46:57;;;;;;;3.42;2.10;;;;;;;18.31;46.91;99650.09;5015768;28;20081;-58
2022/11/23 10:49:31;;;;;;;3.92;1.67;;;;;;;18.30;46.84;99638.50;5023730;28;20088;-58
2022/11/23 10:51:58;;;;;;;2.70;1.38;;;;;;;18.31;46.89;99631.25;5006933;28;20049;-57
2022/11/23 10:54:26;;;;;;;3.90;1.50;;;;;;;18.32;46.81;99624.88;5024075;28;20112;-58
2022/11/23 10:56:52;;;;;;;4.10;1.30;;;;;;;18.25;46.90;99605.97;5006390;28;20021;-59
2022/11/23 10:59:32;;;;;;;2.90;1.25;;;;;;;18.31;46.99;99615.97;5023622;28;20033;-59
2022/11/23 11:02:04;;;;;;;3.45;1.70;;;;;;;18.33;47.15;99607.69;5022430;28;20037;-58
2022/11/23 11:04:29;;;;;;;3.28;1.30;;;;;;;18.34;46.35;99614.72;5023927;28;20050;-57
2022/11/23 11:07:27;;;;;;;3.25;1.50;;;;;;;18.34;47.17;99612.88;5023507;28;20034;-55
2022/11/23 11:09:58;;;;;;;6.03;1.65;;;;;;;18.36;47.17;99612.69;5021949;28;20046;-56
2022/11/23 11:12:25;;;;;;;2.80;1.50;;;;;;;18.36;46.91;99608.13;5023518;28;20022;-57
2022/11/23 11:14:55;;;;;;;3.35;1.33;;;;;;;18.37;47.25;99614.34;5023593;28;20018;-56
2022/11/23 11:17:28;;;;;;;2.42;1.45;;;;;;;18.38;47.34;99600.69;5023461;28;20018;-57
2022/11/23 11:19:54;;;;;;;4.35;1.42;;;;;;;18.40;47.18;99608.59;5022977;28;20085;-56
2022/11/23 11:22:32;;;;;;;3.42;1.38;;;;;;;18.41;47.35;99607.53;5023084;28;20030;-57
2022/11/23 11:24:57;;;;;;;3.33;1.40;;;;;;;18.42;47.74;99591.19;5004411;28;20110;-57
2022/11/23 11:27:24;;;;;;;3.25;1.50;;;;;;;18.43;47.63;99600.91;5003752;28;20031;-58
2022/11/23 11:29:51;;;;;;;2.38;1.33;;;;;;;18.45;47.93;99609.66;5003301;28;20030;-58
2022/11/23 11:32:42;;;;;;;3.53;1.23;;;;;;;18.45;47.77;99612.34;5003588;28;20030;-58
2022/11/23 11:35:30;;;;;;;2.65;1.30;;;;;;;18.49;48.02;99608.22;4970588;28;20093;-57